Time;durP1;ratioP1;P1;durP2;ratioP2;P2;SDS_P1;SDS_P2;PMS_P1;PMS_P2;Temp;Humidity;BMP_temperature;BMP_pressure;BME280_temperature;BME280_humidity;BME280_pressure;Samples;Min_cycle;Max_cycle;Signal;HPM_P1;HPM_P2
2024/04/23 00:01:38;;;;;;;10.52;7.47;;;4.60;99.90;;;;;;5341811;26;20255;-68
2024/04/23 00:04:04;;;;;;;11.13;7.13;;;4.60;99.90;;;;;;5340456;26;20235;-68
2024/04/23 00:06:29;;;;;;;10.38;6.57;;;4.60;99.90;;;;;;5399202;26;20284;-68
2024/04/23 00:08:55;;;;;;;13.38;7.78;;;4.60;99.90;;;;;;5343782;26;20226;-69
2024/04/23 00:11:21;;;;;;;13.18;7.32;;;4.60;99.90;;;;;;5342559;26;20705;-68
2024/04/23 00:13:47;;;;;;;10.55;7.20;;;4.60;99.90;;;;;;5406643;26;20689;-68
2024/04/23 00:16:12;;;;;;;15.65;7.60;;;4.60;99.90;;;;;;5341478;26;20238;-69
2024/04/23 00:18:38;;;;;;;16.20;8.50;;;4.60;99.90;;;;;;5400822;26;20269;-70
2024/04/23 00:21:04;;;;;;;15.05;7.65;;;4.50;99.90;;;;;;5337825;26;20731;-68
2024/04/23 00:23:30;;;;;;;13.00;8.50;;;4.50;99.90;;;;;;5337660;26;20243;-69
2024/04/23 00:25:55;;;;;;;13.07;8.68;;;4.50;99.90;;;;;;5369773;26;20286;-68
2024/04/23 00:28:21;;;;;;;15.10;8.52;;;4.50;99.90;;;;;;5340809;26;20230;-69
2024/04/23 00:30:47;;;;;;;14.13;8.23;;;4.50;99.90;;;;;;5339737;26;20368;-69
2024/04/23 00:33:12;;;;;;;13.85;8.43;;;4.50;99.90;;;;;;5332132;26;20235;-69
2024/04/23 00:35:38;;;;;;;12.52;9.00;;;4.50;99.90;;;;;;5400134;26;20376;-69
2024/04/23 00:38:04;;;;;;;19.80;10.00;;;4.50;99.90;;;;;;5341337;26;20231;-70
2024/04/23 00:40:30;;;;;;;15.05;9.60;;;4.50;99.90;;;;;;5345920;26;20235;-69
2024/04/23 00:42:56;;;;;;;15.18;9.05;;;4.40;99.90;;;;;;5345904;26;20235;-70
2024/04/23 00:45:26;;;;;;;17.20;9.90;;;4.40;99.90;;;;;;5342060;26;20289;-68
2024/04/23 00:47:52;;;;;;;16.58;9.35;;;4.40;99.90;;;;;;5343306;26;20296;-69
2024/04/23 00:50:17;;;;;;;13.93;9.20;;;4.40;99.90;;;;;;5350671;26;20282;-69
2024/04/23 00:52:43;;;;;;;17.48;9.30;;;4.40;99.90;;;;;;5343596;26;20272;-69
2024/04/23 00:55:11;;;;;;;13.35;9.52;;;4.40;99.90;;;;;;5348647;26;20289;-69
2024/04/23 00:57:38;;;;;;;14.75;9.90;;;4.30;99.90;;;;;;5345404;26;20315;-69
2024/04/23 01:00:05;;;;;;;16.30;9.77;;;4.40;99.90;;;;;;5348404;26;20235;-70
2024/04/23 01:02:50;;;;;;;14.70;10.30;;;4.40;99.90;;;;;;5350766;26;20368;-69
2024/04/23 01:05:15;;;;;;;14.02;9.90;;;4.30;99.90;;;;;;5341666;26;20242;-70
2024/04/23 01:07:41;;;;;;;16.27;9.68;;;4.30;99.90;;;;;;5345424;26;21920;-69
2024/04/23 01:10:07;;;;;;;14.98;9.77;;;4.30;99.90;;;;;;5344449;26;20284;-70
2024/04/23 01:12:33;;;;;;;12.93;8.82;;;4.30;99.90;;;;;;5338471;26;20281;-70
2024/04/23 01:14:59;;;;;;;14.52;9.10;;;4.30;99.90;;;;;;5347223;26;20292;-69
2024/04/23 01:17:25;;;;;;;14.65;9.05;;;4.20;99.90;;;;;;5340149;26;20264;-70
2024/04/23 01:20:01;;;;;;;15.70;9.15;;;4.20;99.90;;;;;;5343852;26;20251;-69
2024/04/23 01:22:46;;;;;;;13.65;9.30;;;4.20;99.90;;;;;;5342904;26;20242;-69
2024/04/23 01:25:20;;;;;;;13.82;9.02;;;4.10;99.90;;;;;;5345256;26;20272;-69
2024/04/23 01:27:48;;;;;;;14.93;8.70;;;4.20;99.90;;;;;;5345328;26;20244;-69
2024/04/23 01:30:16;;;;;;;16.25;9.35;;;4.10;99.90;;;;;;5347261;26;20711;-69
2024/04/23 01:32:45;;;;;;;12.88;9.32;;;4.10;99.90;;;;;;5348330;26;20237;-68
2024/04/23 01:35:12;;;;;;;14.55;8.90;;;4.10;99.90;;;;;;5342549;26;20306;-67
2024/04/23 01:37:43;;;;;;;15.90;9.20;;;4.10;99.90;;;;;;5341219;26;20577;-69
2024/04/23 01:40:10;;;;;;;16.48;9.25;;;4.10;99.90;;;;;;5335251;26;20235;-69
2024/04/23 01:42:37;;;;;;;15.98;9.57;;;4.10;99.90;;;;;;5400643;26;20233;-69
2024/04/23 01:45:04;;;;;;;13.75;8.85;;;4.10;99.90;;;;;;5339661;26;20227;-69
2024/04/23 01:47:30;;;;;;;14.82;8.77;;;4.10;99.90;;;;;;5340889;26;20238;-69
2024/04/23 01:49:56;;;;;;;15.93;9.90;;;4.10;99.90;;;;;;5343855;26;20279;-69
2024/04/23 01:52:22;;;;;;;12.68;8.77;;;4.10;99.90;;;;;;5341964;26;20286;-69
2024/04/23 01:54:48;;;;;;;15.32;9.35;;;4.10;99.90;;;;;;5344845;26;20230;-69
2024/04/23 01:57:14;;;;;;;14.60;9.68;;;4.10;99.90;;;;;;5342711;26;20401;-70
2024/04/23 01:59:47;;;;;;;12.80;9.45;;;4.10;99.90;;;;;;5316222;26;20234;-70
2024/04/23 02:02:14;;;;;;;14.35;9.55;;;4.10;99.90;;;;;;5347548;26;20351;-70
2024/04/23 02:04:40;;;;;;;16.83;9.35;;;4.10;99.90;;;;;;5340318;26;20289;-69
2024/04/23 02:07:06;;;;;;;13.20;9.32;;;4.00;99.90;;;;;;5398344;26;20233;-69
2024/04/23 02:09:33;;;;;;;15.85;9.50;;;4.00;99.90;;;;;;5341756;26;20280;-69
2024/04/23 02:12:03;;;;;;;15.30;9.45;;;4.00;99.90;;;;;;5347122;26;20305;-69
2024/04/23 02:14:29;;;;;;;12.10;9.02;;;4.00;99.90;;;;;;5340661;26;20302;-68
2024/04/23 02:16:56;;;;;;;12.18;8.80;;;4.00;99.90;;;;;;5348841;26;20246;-69
2024/04/23 02:19:22;;;;;;;16.67;8.90;;;4.00;99.90;;;;;;5341058;26;20357;-69
2024/04/23 02:21:47;;;;;;;17.58;9.73;;;4.00;99.90;;;;;;5394727;26;20284;-69
2024/04/23 02:24:13;;;;;;;12.32;9.00;;;4.00;99.90;;;;;;5345829;26;20300;-69
2024/04/23 02:26:39;;;;;;;12.77;9.25;;;4.00;99.90;;;;;;5343287;26;20284;-68
2024/04/23 02:29:04;;;;;;;15.07;9.35;;;4.00;99.90;;;;;;5340276;26;20269;-68
2024/04/23 02:31:30;;;;;;;13.32;8.90;;;4.10;99.90;;;;;;5348945;26;20233;-68
2024/04/23 02:33:56;;;;;;;14.25;8.77;;;4.10;99.90;;;;;;5341471;26;20234;-69
2024/04/23 02:36:21;;;;;;;16.02;9.02;;;4.10;99.90;;;;;;5407778;26;20268;-69
2024/04/23 02:38:47;;;;;;;13.73;9.75;;;4.20;99.90;;;;;;5341640;26;20239;-70
2024/04/23 02:41:13;;;;;;;14.93;9.70;;;4.20;99.90;;;;;;5342337;26;20345;-70
2024/04/23 02:43:38;;;;;;;12.85;9.27;;;4.30;99.90;;;;;;5373542;26;20250;-69
2024/04/23 02:46:04;;;;;;;12.05;8.93;;;4.30;99.90;;;;;;5343419;26;20230;-70
2024/04/23 02:48:30;;;;;;;13.15;9.95;;;4.40;99.90;;;;;;5340739;26;20725;-69
2024/04/23 02:50:55;;;;;;;16.33;9.75;;;4.40;99.90;;;;;;5343811;26;20704;-69
2024/04/23 02:53:21;;;;;;;12.60;8.90;;;4.40;99.90;;;;;;5340774;26;20280;-70
2024/04/23 02:55:47;;;;;;;13.10;9.10;;;4.50;99.90;;;;;;5341816;26;20727;-68
2024/04/23 02:58:12;;;;;;;12.60;9.10;;;4.50;99.90;;;;;;5344080;26;20234;-68
2024/04/23 03:00:38;;;;;;;13.40;9.48;;;4.50;99.90;;;;;;5340312;26;20223;-68
2024/04/23 03:03:04;;;;;;;12.73;9.13;;;4.50;99.90;;;;;;5401846;26;20280;-69
2024/04/23 03:05:30;;;;;;;14.52;9.75;;;4.60;99.90;;;;;;5344497;26;20347;-70
2024/04/23 03:07:55;;;;;;;13.70;9.98;;;4.60;99.90;;;;;;5349273;26;20237;-68
2024/04/23 03:10:21;;;;;;;14.50;9.95;;;4.60;99.90;;;;;;5344976;26;20226;-69
2024/04/23 03:12:47;;;;;;;12.40;9.10;;;4.50;99.90;;;;;;5402048;26;20234;-67
2024/04/23 03:15:12;;;;;;;13.15;9.10;;;4.50;99.90;;;;;;5341396;26;20229;-68
2024/04/23 03:17:38;;;;;;;14.90;9.15;;;4.50;99.90;;;;;;5340487;26;20246;-68
2024/04/23 03:20:05;;;;;;;13.60;9.13;;;4.50;99.90;;;;;;5345654;26;20285;-70
2024/04/23 03:22:30;;;;;;;13.35;8.95;;;4.50;99.90;;;;;;5346179;26;20230;-70
2024/04/23 03:24:56;;;;;;;12.38;9.45;;;4.50;99.90;;;;;;5347031;26;20273;-70
2024/04/23 03:27:22;;;;;;;13.95;9.48;;;4.60;99.90;;;;;;5404522;26;20279;-70
2024/04/23 03:29:48;;;;;;;15.70;9.45;;;4.60;99.90;;;;;;5348159;26;20246;-70
2024/04/23 03:32:13;;;;;;;13.10;9.82;;;4.60;99.90;;;;;;5348193;26;21508;-69
2024/04/23 03:34:39;;;;;;;13.05;9.63;;;4.70;99.90;;;;;;5344520;26;20226;-70
2024/04/23 03:37:05;;;;;;;14.05;9.30;;;4.60;99.90;;;;;;5343180;26;20272;-70
2024/04/23 03:39:30;;;;;;;12.70;9.18;;;4.60;99.90;;;;;;5340605;26;20335;-70
2024/04/23 03:41:57;;;;;;;16.30;10.20;;;4.60;99.90;;;;;;5348489;26;20258;-70
2024/04/23 03:44:24;;;;;;;13.90;9.50;;;4.60;99.90;;;;;;5347916;26;20342;-69
2024/04/23 03:46:49;;;;;;;14.13;10.30;;;4.60;99.90;;;;;;5343715;26;20233;-70
2024/04/23 03:49:15;;;;;;;12.00;8.68;;;4.60;99.90;;;;;;5344494;26;20273;-69
2024/04/23 03:51:41;;;;;;;15.30;9.23;;;4.70;99.90;;;;;;5344314;26;20243;-70
2024/04/23 03:54:06;;;;;;;12.68;8.65;;;4.70;99.90;;;;;;5400155;26;20244;-70
2024/04/23 03:56:32;;;;;;;15.10;8.88;;;4.70;99.90;;;;;;5351859;26;20235;-69
2024/04/23 03:58:58;;;;;;;14.75;9.25;;;4.70;99.90;;;;;;5344867;26;20233;-71
2024/04/23 04:01:23;;;;;;;15.55;9.40;;;4.70;99.90;;;;;;5341961;26;20312;-70
2024/04/23 04:06:33;;;;;;;11.85;8.70;;;4.80;99.90;;;;;;5341634;26;20234;-69
2024/04/23 04:08:59;;;;;;;14.02;9.45;;;4.80;99.90;;;;;;5344534;26;20233;-68
2024/04/23 04:11:25;;;;;;;14.75;9.00;;;4.80;99.90;;;;;;5403518;26;20356;-68
2024/04/23 04:13:50;;;;;;;10.93;8.20;;;4.90;99.90;;;;;;5338764;26;20242;-69
2024/04/23 04:16:16;;;;;;;14.70;10.25;;;5.00;99.90;;;;;;5348091;26;20239;-69
2024/04/23 04:18:42;;;;;;;14.02;7.57;;;5.00;99.90;;;;;;5344785;26;21647;-69
2024/04/23 04:21:07;;;;;;;11.27;7.88;;;5.00;99.90;;;;;;5343386;26;20306;-69
2024/04/23 04:23:33;;;;;;;13.68;8.27;;;5.10;99.90;;;;;;5348074;26;20275;-68
2024/04/23 04:25:59;;;;;;;14.10;8.77;;;5.10;99.90;;;;;;5341745;26;20235;-68
2024/04/23 04:28:25;;;;;;;12.60;8.90;;;5.10;99.90;;;;;;5343330;26;20318;-70
2024/04/23 04:30:51;;;;;;;12.90;8.80;;;5.10;99.90;;;;;;5348525;26;20238;-70
2024/04/23 04:33:16;;;;;;;14.75;8.00;;;5.10;99.90;;;;;;5400708;26;20250;-69
2024/04/23 04:35:42;;;;;;;14.13;8.57;;;5.20;99.90;;;;;;5343222;26;20282;-69
2024/04/23 04:38:08;;;;;;;13.93;8.90;;;5.20;99.90;;;;;;5345980;26;20233;-69
2024/04/23 04:40:35;;;;;;;13.50;9.32;;;5.20;99.90;;;;;;5345858;26;20306;-69
2024/04/23 04:43:00;;;;;;;14.32;9.98;;;5.20;99.90;;;;;;5348212;26;20242;-70
2024/04/23 04:45:26;;;;;;;19.75;9.50;;;5.20;99.90;;;;;;5342525;26;20277;-70
2024/04/23 04:47:52;;;;;;;16.52;9.25;;;5.20;99.90;;;;;;5342563;26;20227;-67
2024/04/23 04:50:18;;;;;;;16.55;9.15;;;5.20;99.90;;;;;;5394823;26;20736;-67
2024/04/23 04:52:44;;;;;;;15.70;9.63;;;5.30;99.90;;;;;;5347696;26;20356;-69
2024/04/23 04:55:10;;;;;;;14.02;9.35;;;5.30;99.90;;;;;;5346228;26;20229;-68
2024/04/23 04:57:36;;;;;;;14.35;9.57;;;5.30;99.90;;;;;;5345035;26;20237;-69
2024/04/23 05:00:02;;;;;;;16.27;9.32;;;5.30;99.90;;;;;;5346265;26;20229;-69
2024/04/23 05:02:28;;;;;;;16.05;9.70;;;5.40;99.90;;;;;;5345433;26;20562;-69
2024/04/23 05:04:55;;;;;;;16.08;9.38;;;5.40;99.90;;;;;;5398435;26;20246;-69
2024/04/23 05:07:22;;;;;;;12.48;9.18;;;5.50;99.90;;;;;;5342632;26;20289;-69
2024/04/23 05:09:47;;;;;;;12.77;9.13;;;5.50;99.90;;;;;;5345700;26;20270;-69
2024/04/23 05:12:14;;;;;;;15.88;9.55;;;5.50;99.90;;;;;;5341402;26;20239;-69
2024/04/23 05:14:40;;;;;;;14.88;9.23;;;5.60;99.90;;;;;;5346371;26;20231;-70
2024/04/23 05:17:06;;;;;;;14.90;10.05;;;5.70;99.90;;;;;;5347202;26;20234;-71
2024/04/23 05:19:31;;;;;;;13.90;9.60;;;5.70;99.90;;;;;;5339513;26;20234;-68
2024/04/23 05:21:57;;;;;;;18.17;9.63;;;5.80;99.90;;;;;;5373409;26;20230;-69
2024/04/23 05:24:23;;;;;;;16.55;9.55;;;5.80;99.90;;;;;;5343574;26;20285;-71
2024/04/23 05:26:48;;;;;;;14.65;9.13;;;5.90;99.90;;;;;;5341475;26;20711;-68
2024/04/23 05:29:14;;;;;;;14.15;9.98;;;5.90;99.90;;;;;;5406558;26;20734;-71
2024/04/23 05:34:25;;;;;;;17.75;10.82;;;6.00;99.90;;;;;;5343096;26;20657;-69
2024/04/23 05:36:50;;;;;;;15.13;10.02;;;6.10;99.90;;;;;;5340462;26;20251;-68
2024/04/23 05:39:16;;;;;;;16.15;9.80;;;6.10;99.90;;;;;;5344154;26;20298;-69
2024/04/23 05:41:42;;;;;;;14.43;9.57;;;6.20;99.90;;;;;;5348158;26;20753;-69
2024/04/23 05:44:08;;;;;;;23.05;10.70;;;6.20;99.90;;;;;;5345866;26;20229;-70
2024/04/23 05:46:33;;;;;;;13.70;10.02;;;6.30;99.90;;;;;;5339977;26;20289;-71
2024/04/23 05:49:36;;;;;;;15.60;9.85;;;6.30;99.90;;;;;;5399599;26;20313;-70
2024/04/23 05:52:59;;;;;;;13.45;8.73;;;6.30;99.90;;;;;;5350256;26;20810;-69
2024/04/23 05:55:43;;;;;;;12.95;8.38;;;6.40;99.90;;;;;;5341624;26;20273;-67
2024/04/23 05:58:09;;;;;;;11.95;7.90;;;6.40;99.90;;;;;;5400826;26;20230;-69
2024/04/23 06:00:36;;;;;;;12.38;7.78;;;6.40;99.90;;;;;;5340446;26;20594;-68
2024/04/23 06:03:02;;;;;;;10.88;7.28;;;6.30;99.90;;;;;;5405731;26;20251;-72
2024/04/23 06:05:28;;;;;;;14.23;8.30;;;6.40;99.90;;;;;;5345652;26;20231;-70
2024/04/23 06:07:55;;;;;;;11.30;8.10;;;6.40;99.90;;;;;;5341155;26;20230;-71
2024/04/23 06:10:21;;;;;;;12.07;8.25;;;6.40;99.90;;;;;;5402717;26;20234;-68
2024/04/23 06:12:48;;;;;;;11.73;8.23;;;6.40;99.90;;;;;;5340580;26;20324;-69
2024/04/23 06:15:14;;;;;;;12.63;7.68;;;6.40;99.90;;;;;;5342147;26;20331;-70
2024/04/23 06:17:40;;;;;;;11.77;8.38;;;6.40;99.90;;;;;;5343712;26;20727;-71
2024/04/23 06:20:08;;;;;;;11.82;7.18;;;6.40;99.90;;;;;;5337467;26;20766;-68
2024/04/23 06:22:38;;;;;;;10.07;7.32;;;6.50;99.90;;;;;;5340158;26;20272;-67
2024/04/23 06:25:06;;;;;;;11.00;7.53;;;6.60;99.90;;;;;;5344480;26;20276;-69
2024/04/23 06:27:32;;;;;;;11.52;8.05;;;6.60;99.90;;;;;;5344083;26;20269;-69
2024/04/23 06:30:07;;;;;;;10.25;7.35;;;6.60;99.90;;;;;;5343552;26;20234;-69
2024/04/23 06:32:33;;;;;;;11.30;7.28;;;6.70;99.90;;;;;;5378022;26;20244;-69
2024/04/23 06:34:59;;;;;;;10.20;7.40;;;6.80;99.90;;;;;;5343842;26;20628;-71
2024/04/23 06:37:24;;;;;;;9.07;6.72;;;6.80;99.90;;;;;;5342247;26;20708;-69
2024/04/23 06:39:50;;;;;;;14.77;7.53;;;6.80;99.90;;;;;;5343181;26;20284;-69
2024/04/23 06:42:16;;;;;;;10.93;6.97;;;6.90;99.90;;;;;;5343521;26;20830;-70
2024/04/23 06:44:41;;;;;;;12.70;7.00;;;6.90;99.90;;;;;;5342122;26;20404;-71
2024/04/23 06:47:07;;;;;;;11.63;7.10;;;7.00;99.90;;;;;;5343352;26;20239;-68
2024/04/23 06:49:34;;;;;;;10.88;6.72;;;7.00;99.90;;;;;;5368367;26;20277;-70
2024/04/23 06:52:00;;;;;;;14.18;6.90;;;7.10;99.90;;;;;;5353727;26;20403;-68
2024/04/23 06:54:26;;;;;;;11.63;6.78;;;7.10;99.90;;;;;;5347151;26;20272;-68
2024/04/23 06:56:52;;;;;;;12.70;6.53;;;7.20;99.90;;;;;;5338733;26;20618;-69
2024/04/23 06:59:18;;;;;;;12.80;6.60;;;7.20;99.90;;;;;;5351716;26;20290;-70
2024/04/23 07:01:44;;;;;;;17.13;6.93;;;7.30;99.90;;;;;;5341765;26;21227;-69
2024/04/23 07:04:10;;;;;;;10.13;6.80;;;7.30;99.90;;;;;;5342446;26;20969;-69
2024/04/23 07:06:36;;;;;;;12.60;6.68;;;7.40;99.90;;;;;;5342600;26;20331;-67
2024/04/23 07:09:03;;;;;;;10.27;6.35;;;7.40;99.90;;;;;;5400575;26;20258;-68
2024/04/23 07:11:28;;;;;;;9.50;5.55;;;7.50;99.90;;;;;;5338128;26;20271;-68
2024/04/23 07:13:54;;;;;;;7.22;5.10;;;7.50;99.90;;;;;;5343374;26;20233;-69
2024/04/23 07:16:20;;;;;;;9.93;4.75;;;7.50;99.90;;;;;;5352007;26;20759;-69
2024/04/23 07:18:46;;;;;;;8.57;4.82;;;7.60;99.90;;;;;;5397485;26;20280;-69
2024/04/23 07:21:11;;;;;;;9.13;4.40;;;7.60;99.90;;;;;;5344047;26;20235;-69
2024/04/23 07:23:37;;;;;;;8.88;5.20;;;7.70;99.90;;;;;;5343745;26;20239;-70
2024/04/23 07:26:03;;;;;;;6.80;4.70;;;7.70;99.90;;;;;;5346122;26;20237;-69
2024/04/23 07:28:29;;;;;;;6.20;5.00;;;7.70;99.90;;;;;;5340860;26;20230;-69
2024/04/23 07:30:55;;;;;;;8.98;5.47;;;7.80;99.90;;;;;;5396139;26;20234;-68
2024/04/23 07:33:21;;;;;;;5.55;4.50;;;7.80;99.90;;;;;;5336644;26;20638;-68
2024/04/23 07:35:47;;;;;;;13.90;5.18;;;7.90;99.90;;;;;;5341075;26;20257;-70
2024/04/23 07:38:13;;;;;;;10.10;5.38;;;7.90;99.90;;;;;;5365641;26;20378;-69
2024/04/23 07:40:40;;;;;;;6.57;4.90;;;7.90;99.90;;;;;;5346668;26;20284;-69
2024/04/23 07:43:06;;;;;;;8.40;4.45;;;8.00;99.90;;;;;;5399093;26;20242;-71
2024/04/23 07:45:32;;;;;;;7.60;4.80;;;8.00;99.90;;;;;;5341958;26;20343;-69
2024/04/23 07:47:59;;;;;;;9.23;4.95;;;8.10;99.90;;;;;;5344484;26;20611;-69
2024/04/23 07:50:24;;;;;;;8.88;5.00;;;8.10;99.90;;;;;;5342872;26;20313;-71
2024/04/23 07:52:51;;;;;;;6.53;4.25;;;8.20;99.90;;;;;;5340293;26;20708;-70
2024/04/23 07:55:17;;;;;;;7.55;4.60;;;8.30;99.90;;;;;;5350076;26;20233;-69
2024/04/23 07:57:47;;;;;;;5.78;4.00;;;8.30;99.90;;;;;;5363056;26;20262;-69
2024/04/23 08:00:13;;;;;;;8.13;3.38;;;8.40;99.90;;;;;;5339544;26;20601;-69
2024/04/23 08:02:39;;;;;;;8.35;4.00;;;8.40;99.90;;;;;;5332600;26;20259;-69
2024/04/23 08:05:05;;;;;;;6.60;4.03;;;8.40;99.90;;;;;;5341624;26;22136;-69
2024/04/23 08:07:32;;;;;;;8.77;4.32;;;8.40;99.90;;;;;;5338916;26;20890;-70
2024/04/23 08:10:00;;;;;;;6.13;4.28;;;8.40;99.90;;;;;;5343019;26;20264;-69
2024/04/23 08:12:26;;;;;;;6.55;4.70;;;8.40;99.90;;;;;;5344614;26;20334;-70
2024/04/23 08:14:52;;;;;;;4.93;3.85;;;8.30;99.90;;;;;;5343654;26;20246;-68
2024/04/23 08:17:19;;;;;;;6.35;3.80;;;8.40;99.90;;;;;;5347262;26;20285;-69
2024/04/23 08:19:45;;;;;;;7.05;3.65;;;8.40;99.90;;;;;;5345832;26;20238;-67
2024/04/23 08:22:10;;;;;;;6.97;4.00;;;8.50;99.90;;;;;;5341093;26;20281;-69
2024/04/23 08:24:36;;;;;;;8.05;3.90;;;8.50;99.90;;;;;;5351713;26;20715;-70
2024/04/23 08:27:02;;;;;;;7.05;3.70;;;8.60;99.90;;;;;;5347170;26;20594;-70
2024/04/23 08:29:28;;;;;;;5.20;3.65;;;8.60;99.90;;;;;;5345377;26;20368;-68
2024/04/23 08:31:53;;;;;;;5.90;3.90;;;8.50;99.90;;;;;;5407054;26;20277;-68
2024/04/23 08:34:19;;;;;;;8.05;4.50;;;8.60;99.90;;;;;;5353124;26;20815;-69
2024/04/23 08:36:45;;;;;;;8.02;4.55;;;8.60;99.90;;;;;;5341926;26;20229;-68
2024/04/23 08:39:10;;;;;;;8.35;4.53;;;8.60;99.90;;;;;;5404734;26;20375;-70
2024/04/23 08:41:43;;;;;;;7.15;4.53;;;8.60;99.90;;;;;;5341390;26;20231;-69
2024/04/23 08:44:11;;;;;;;6.85;4.15;;;8.60;99.90;;;;;;5342565;26;20281;-70
2024/04/23 08:46:37;;;;;;;7.15;4.70;;;8.50;99.50;;;;;;5349342;26;20254;-70
2024/04/23 08:49:04;;;;;;;7.50;4.00;;;8.50;99.20;;;;;;5343665;26;20230;-68
2024/04/23 08:51:32;;;;;;;5.57;4.13;;;8.40;99.30;;;;;;5340144;26;20237;-68
2024/04/23 08:54:01;;;;;;;9.98;4.55;;;8.40;99.10;;;;;;5342964;26;21771;-70
2024/04/23 08:56:31;;;;;;;8.15;4.07;;;8.40;98.90;;;;;;5345509;26;20273;-71
2024/04/23 08:58:57;;;;;;;5.95;4.10;;;8.50;98.90;;;;;;5344602;26;20238;-69
2024/04/23 09:01:35;;;;;;;5.38;3.97;;;8.60;98.60;;;;;;5343438;26;20242;-69
2024/04/23 09:04:05;;;;;;;6.90;4.20;;;8.70;98.10;;;;;;5344080;26;20235;-68
2024/04/23 09:06:33;;;;;;;6.30;4.60;;;8.80;98.00;;;;;;5346206;26;20234;-68
2024/04/23 09:08:59;;;;;;;36.25;9.27;;;8.90;98.10;;;;;;5349707;26;20233;-68
2024/04/23 09:11:27;;;;;;;6.50;4.22;;;9.00;97.90;;;;;;5344706;26;20262;-67
2024/04/23 09:13:54;;;;;;;6.95;4.10;;;9.20;97.60;;;;;;5374259;26;20284;-68
2024/04/23 09:16:19;;;;;;;4.63;3.65;;;9.30;95.80;;;;;;5338554;26;20234;-68
2024/04/23 09:18:47;;;;;;;5.20;3.90;;;9.40;95.10;;;;;;5350159;26;20385;-68
2024/04/23 09:21:14;;;;;;;7.05;3.70;;;9.50;94.80;;;;;;5343392;26;20245;-68
2024/04/23 09:23:39;;;;;;;5.95;3.70;;;9.50;94.60;;;;;;5340669;26;20249;-69
2024/04/23 09:26:06;;;;;;;6.18;4.30;;;9.70;93.40;;;;;;5348250;26;20281;-69
2024/04/23 09:28:33;;;;;;;5.18;3.97;;;9.70;92.80;;;;;;5340053;26;20242;-68
2024/04/23 09:31:00;;;;;;;5.13;3.95;;;9.80;92.60;;;;;;5343696;26;20229;-69
2024/04/23 09:33:28;;;;;;;7.53;4.28;;;9.90;92.90;;;;;;5339352;26;20348;-69
2024/04/23 09:36:03;;;;;;;7.57;3.35;;;9.90;92.70;;;;;;5337603;26;20269;-68
2024/04/23 09:38:35;;;;;;;4.43;3.35;;;10.00;91.20;;;;;;5402459;26;20293;-69
2024/04/23 09:41:05;;;;;;;4.40;3.28;;;10.00;90.10;;;;;;5339803;26;20258;-69
2024/04/23 09:43:31;;;;;;;4.40;3.55;;;10.00;89.60;;;;;;5340400;26;20234;-68
2024/04/23 09:45:57;;;;;;;4.80;3.58;;;10.00;89.60;;;;;;5343269;26;20519;-69
2024/04/23 09:48:33;;;;;;;5.07;3.60;;;10.10;89.00;;;;;;5347664;26;20420;-69
2024/04/23 09:51:09;;;;;;;6.65;3.83;;;10.20;89.90;;;;;;5344872;26;20233;-69
2024/04/23 09:53:39;;;;;;;7.03;3.70;;;10.30;87.10;;;;;;5343781;26;20265;-69
2024/04/23 09:56:12;;;;;;;5.97;3.63;;;10.40;87.60;;;;;;5345042;26;20269;-69
2024/04/23 09:58:39;;;;;;;4.35;3.30;;;10.60;85.90;;;;;;5344807;26;20280;-70
2024/04/23 10:01:06;;;;;;;5.32;3.50;;;10.80;85.10;;;;;;5313659;26;20241;-69
2024/04/23 10:03:34;;;;;;;4.40;3.42;;;10.90;84.40;;;;;;5347026;26;20237;-70
2024/04/23 10:06:03;;;;;;;6.20;3.70;;;11.00;81.30;;;;;;5345158;26;20231;-70
2024/04/23 10:08:51;;;;;;;7.22;3.95;;;11.10;81.90;;;;;;5340942;26;20765;-69
2024/04/23 10:11:25;;;;;;;5.43;3.20;;;11.10;81.90;;;;;;5345010;26;20233;-69
2024/04/23 10:13:53;;;;;;;5.78;3.13;;;11.00;79.80;;;;;;5342374;26;20233;-68
2024/04/23 10:16:38;;;;;;;6.45;3.20;;;10.90;80.00;;;;;;5344378;26;20289;-69
2024/04/23 10:19:10;;;;;;;4.18;2.78;;;10.80;80.40;;;;;;5339090;26;20341;-70
2024/04/23 10:21:42;;;;;;;5.45;3.45;;;10.70;78.90;;;;;;5398345;26;20234;-68
2024/04/23 10:24:12;;;;;;;6.55;3.15;;;10.70;77.80;;;;;;5344073;26;20623;-69
2024/04/23 10:26:44;;;;;;;5.72;3.40;;;10.60;78.10;;;;;;5403459;26;20254;-68
2024/04/23 10:29:13;;;;;;;3.60;2.78;;;10.50;77.70;;;;;;5349131;26;20289;-70
2024/04/23 10:31:41;;;;;;;4.00;3.20;;;10.30;78.20;;;;;;5344552;26;20238;-70
2024/04/23 10:34:08;;;;;;;5.07;3.30;;;10.30;78.80;;;;;;5341049;26;20793;-68
2024/04/23 10:36:41;;;;;;;3.55;2.75;;;10.30;79.80;;;;;;5338338;26;20242;-69
2024/04/23 10:39:07;;;;;;;4.90;3.30;;;10.40;77.70;;;;;;5370853;26;20334;-68
2024/04/23 10:41:38;;;;;;;4.13;3.20;;;10.40;77.70;;;;;;5317071;26;20276;-68
2024/04/23 10:44:10;;;;;;;5.05;3.20;;;10.40;76.40;;;;;;5342776;26;20268;-68
2024/04/23 10:46:40;;;;;;;3.83;3.10;;;10.40;75.60;;;;;;5347542;26;20281;-68
2024/04/23 10:49:17;;;;;;;4.65;3.10;;;10.40;76.50;;;;;;5399060;26;20335;-69
2024/04/23 10:51:46;;;;;;;4.18;2.88;;;10.50;77.00;;;;;;5343552;26;20764;-68
2024/04/23 10:54:19;;;;;;;4.82;3.17;;;10.50;76.00;;;;;;5398631;26;20260;-69
2024/04/23 10:56:58;;;;;;;5.00;3.33;;;10.50;75.10;;;;;;5342454;26;20246;-68
2024/04/23 10:59:30;;;;;;;4.50;3.25;;;10.60;75.70;;;;;;5346320;26;20401;-69
2024/04/23 11:01:57;;;;;;;5.85;3.03;;;10.80;75.70;;;;;;5339912;26;20284;-70
2024/04/23 11:04:44;;;;;;;5.20;3.78;;;11.00;75.80;;;;;;5338797;26;20238;-69
2024/04/23 11:07:27;;;;;;;5.65;3.08;;;11.10;74.20;;;;;;5342046;26;20236;-68
2024/04/23 11:10:00;;;;;;;4.10;3.10;;;11.20;74.50;;;;;;5349753;26;20558;-69
2024/04/23 11:12:26;;;;;;;4.40;3.10;;;11.30;74.20;;;;;;5343084;26;20234;-69
2024/04/23 11:14:58;;;;;;;4.82;2.90;;;11.30;74.00;;;;;;5344599;26;20235;-69
2024/04/23 11:17:24;;;;;;;4.32;3.20;;;11.10;74.00;;;;;;5339190;26;20321;-68
2024/04/23 11:19:52;;;;;;;4.05;3.00;;;11.00;75.30;;;;;;5346174;26;20611;-67
2024/04/23 11:22:33;;;;;;;3.85;3.10;;;11.00;74.90;;;;;;5342500;26;20267;-68
2024/04/23 11:25:06;;;;;;;6.30;3.20;;;11.00;74.60;;;;;;5340244;26;20710;-68
2024/04/23 11:27:32;;;;;;;6.50;3.03;;;11.00;75.10;;;;;;5339469;26;20243;-68
2024/04/23 11:29:58;;;;;;;4.47;3.13;;;11.20;75.30;;;;;;5371844;26;20297;-68
2024/04/23 11:32:24;;;;;;;4.63;3.30;;;11.20;73.90;;;;;;5340979;26;20324;-69
2024/04/23 11:34:50;;;;;;;4.78;3.13;;;11.20;73.50;;;;;;5340412;26;20254;-68
2024/04/23 11:37:22;;;;;;;6.80;2.78;;;11.20;72.80;;;;;;5345008;26;20281;-69
2024/04/23 11:39:59;;;;;;;3.33;2.53;;;11.20;71.80;;;;;;5340110;26;20243;-71
2024/04/23 11:42:31;;;;;;;5.78;3.05;;;11.10;70.60;;;;;;5342135;26;20711;-68
2024/04/23 11:45:02;;;;;;;4.55;3.00;;;11.10;71.10;;;;;;5345207;26;20242;-70
2024/04/23 11:47:28;;;;;;;5.53;3.22;;;11.00;71.10;;;;;;5343882;26;20245;-69
2024/04/23 11:49:55;;;;;;;4.53;3.28;;;11.00;70.90;;;;;;5344191;26;20285;-69
2024/04/23 11:52:22;;;;;;;5.20;3.50;;;11.00;70.30;;;;;;5350213;26;21208;-70
2024/04/23 11:54:49;;;;;;;5.85;3.00;;;11.00;70.70;;;;;;5344465;26;20230;-69
2024/04/23 11:57:16;;;;;;;7.18;3.45;;;11.00;70.40;;;;;;5347307;26;20235;-69
2024/04/23 11:59:42;;;;;;;5.75;3.25;;;11.10;71.00;;;;;;5346534;26;20246;-68
2024/04/23 12:02:12;;;;;;;4.90;2.90;;;11.30;71.50;;;;;;5342792;26;20616;-68
2024/04/23 12:04:40;;;;;;;4.60;2.80;;;11.40;71.00;;;;;;5342768;26;20268;-68
2024/04/23 12:07:07;;;;;;;5.63;3.00;;;11.50;70.10;;;;;;5345717;26;21168;-71
2024/04/23 12:09:33;;;;;;;3.63;2.60;;;11.50;70.70;;;;;;5343900;26;20785;-68
2024/04/23 12:12:02;;;;;;;3.47;2.45;;;11.60;69.70;;;;;;5400236;26;20241;-68
2024/04/23 12:14:28;;;;;;;5.80;3.03;;;11.60;68.30;;;;;;5340726;26;20261;-68
2024/04/23 12:16:58;;;;;;;6.57;2.90;;;11.70;67.70;;;;;;5344547;26;20355;-68
2024/04/23 12:19:28;;;;;;;4.68;3.03;;;11.70;67.90;;;;;;5347663;26;20238;-69
2024/04/23 12:21:59;;;;;;;2.88;2.20;;;11.70;68.20;;;;;;5344649;26;20668;-69
2024/04/23 12:24:25;;;;;;;3.70;2.20;;;11.80;68.10;;;;;;5343153;26;20237;-68
2024/04/23 12:26:51;;;;;;;4.70;2.20;;;11.90;68.10;;;;;;5341680;26;20266;-69
2024/04/23 12:29:27;;;;;;;3.90;2.58;;;12.00;68.10;;;;;;5353320;26;20292;-69
2024/04/23 12:32:00;;;;;;;6.57;2.50;;;12.00;66.90;;;;;;5350384;26;20244;-69
2024/04/23 12:34:26;;;;;;;4.35;2.35;;;12.10;65.70;;;;;;5348097;26;20231;-70
2024/04/23 12:36:52;;;;;;;4.05;2.33;;;12.30;64.70;;;;;;5362851;26;20336;-69
2024/04/23 12:39:19;;;;;;;6.63;2.50;;;12.60;64.20;;;;;;5343976;26;20231;-69
2024/04/23 12:41:45;;;;;;;4.03;2.33;;;12.80;63.20;;;;;;5351594;26;20242;-68
2024/04/23 12:44:17;;;;;;;4.18;2.38;;;13.00;63.40;;;;;;5341534;26;20265;-69
2024/04/23 12:46:43;;;;;;;4.07;2.70;;;13.20;62.70;;;;;;5348003;26;20250;-69
2024/04/23 12:49:09;;;;;;;5.50;2.67;;;13.30;61.30;;;;;;5347951;26;20277;-69
2024/04/23 12:51:36;;;;;;;3.38;2.60;;;13.30;61.00;;;;;;5343826;26;20242;-69
2024/04/23 12:54:08;;;;;;;3.25;2.53;;;13.40;60.20;;;;;;5343506;26;20241;-68
2024/04/23 12:56:37;;;;;;;6.95;4.15;;;13.40;59.50;;;;;;5343504;26;20576;-68